sensor_id;sensor_type;location;lat;lon;timestamp;P1;durP1;ratioP1;P2;durP2;ratioP2
78670;SDS011;68277;52.724;6.516;2024-02-28T00:01:06;19.52;;;6.22;;
78670;SDS011;68277;52.724;6.516;2024-02-28T00:03:32;12.38;;;7.82;;
78670;SDS011;68277;52.724;6.516;2024-02-28T00:05:58;25.20;;;8.45;;
78670;SDS011;68277;52.724;6.516;2024-02-28T00:08:24;17.38;;;5.93;;
78670;SDS011;68277;52.724;6.516;2024-02-28T00:10:49;16.27;;;5.93;;
78670;SDS011;68277;52.724;6.516;2024-02-28T00:13:15;37.53;;;9.23;;
78670;SDS011;68277;52.724;6.516;2024-02-28T00:15:41;18.63;;;5.78;;
78670;SDS011;68277;52.724;6.516;2024-02-28T00:18:07;10.73;;;6.90;;
78670;SDS011;68277;52.724;6.516;2024-02-28T00:20:33;15.73;;;6.50;;
78670;SDS011;68277;52.724;6.516;2024-02-28T00:22:59;25.77;;;8.45;;
78670;SDS011;68277;52.724;6.516;2024-02-28T00:25:24;10.63;;;6.13;;
78670;SDS011;68277;52.724;6.516;2024-02-28T00:27:51;22.10;;;6.75;;
78670;SDS011;68277;52.724;6.516;2024-02-28T00:32:43;18.98;;;8.73;;
78670;SDS011;68277;52.724;6.516;2024-02-28T00:35:09;9.95;;;5.03;;
78670;SDS011;68277;52.724;6.516;2024-02-28T00:37:35;14.57;;;3.92;;
78670;SDS011;68277;52.724;6.516;2024-02-28T00:40:03;9.95;;;4.25;;
78670;SDS011;68277;52.724;6.516;2024-02-28T00:42:29;17.48;;;5.65;;
78670;SDS011;68277;52.724;6.516;2024-02-28T00:44:55;8.60;;;5.13;;
78670;SDS011;68277;52.724;6.516;2024-02-28T00:47:21;20.52;;;7.22;;
78670;SDS011;68277;52.724;6.516;2024-02-28T00:49:46;15.20;;;5.45;;
78670;SDS011;68277;52.724;6.516;2024-02-28T00:52:12;9.93;;;5.25;;
78670;SDS011;68277;52.724;6.516;2024-02-28T00:54:37;14.05;;;6.22;;
78670;SDS011;68277;52.724;6.516;2024-02-28T00:57:03;11.00;;;5.18;;
78670;SDS011;68277;52.724;6.516;2024-02-28T00:59:29;11.07;;;4.68;;
78670;SDS011;68277;52.724;6.516;2024-02-28T01:01:54;11.60;;;6.28;;
78670;SDS011;68277;52.724;6.516;2024-02-28T01:04:20;11.38;;;6.35;;
78670;SDS011;68277;52.724;6.516;2024-02-28T01:06:45;12.15;;;8.48;;
78670;SDS011;68277;52.724;6.516;2024-02-28T01:09:11;18.33;;;7.60;;
78670;SDS011;68277;52.724;6.516;2024-02-28T01:11:37;8.00;;;6.90;;
78670;SDS011;68277;52.724;6.516;2024-02-28T01:14:05;14.95;;;7.45;;
78670;SDS011;68277;52.724;6.516;2024-02-28T01:16:31;14.15;;;4.78;;
78670;SDS011;68277;52.724;6.516;2024-02-28T01:18:57;9.45;;;4.50;;
78670;SDS011;68277;52.724;6.516;2024-02-28T01:21:22;14.38;;;6.13;;
78670;SDS011;68277;52.724;6.516;2024-02-28T01:23:48;12.70;;;5.00;;
78670;SDS011;68277;52.724;6.516;2024-02-28T01:26:14;9.02;;;5.72;;
78670;SDS011;68277;52.724;6.516;2024-02-28T01:28:40;12.48;;;5.30;;
78670;SDS011;68277;52.724;6.516;2024-02-28T01:31:08;12.00;;;6.00;;
78670;SDS011;68277;52.724;6.516;2024-02-28T01:33:33;13.43;;;5.85;;
78670;SDS011;68277;52.724;6.516;2024-02-28T01:36:01;12.85;;;5.95;;
78670;SDS011;68277;52.724;6.516;2024-02-28T01:38:26;18.35;;;5.72;;
78670;SDS011;68277;52.724;6.516;2024-02-28T01:40:52;13.73;;;6.15;;
78670;SDS011;68277;52.724;6.516;2024-02-28T01:43:18;15.68;;;7.50;;
78670;SDS011;68277;52.724;6.516;2024-02-28T01:45:43;10.48;;;5.15;;
78670;SDS011;68277;52.724;6.516;2024-02-28T01:48:09;16.90;;;6.05;;
78670;SDS011;68277;52.724;6.516;2024-02-28T01:50:37;8.50;;;6.07;;
78670;SDS011;68277;52.724;6.516;2024-02-28T01:53:03;14.13;;;5.68;;
78670;SDS011;68277;52.724;6.516;2024-02-28T01:55:31;14.48;;;5.88;;
78670;SDS011;68277;52.724;6.516;2024-02-28T01:57:56;16.05;;;7.55;;
78670;SDS011;68277;52.724;6.516;2024-02-28T02:00:22;10.93;;;6.30;;
78670;SDS011;68277;52.724;6.516;2024-02-28T02:02:48;8.88;;;5.65;;
78670;SDS011;68277;52.724;6.516;2024-02-28T02:05:15;10.90;;;4.35;;
78670;SDS011;68277;52.724;6.516;2024-02-28T02:07:41;16.60;;;6.93;;
78670;SDS011;68277;52.724;6.516;2024-02-28T02:10:07;8.57;;;4.60;;
78670;SDS011;68277;52.724;6.516;2024-02-28T02:12:37;13.70;;;4.72;;
78670;SDS011;68277;52.724;6.516;2024-02-28T02:15:03;11.43;;;5.47;;
78670;SDS011;68277;52.724;6.516;2024-02-28T02:17:29;12.63;;;6.60;;
78670;SDS011;68277;52.724;6.516;2024-02-28T02:19:59;12.07;;;6.03;;
78670;SDS011;68277;52.724;6.516;2024-02-28T02:22:26;15.48;;;6.93;;
78670;SDS011;68277;52.724;6.516;2024-02-28T02:24:54;10.55;;;6.57;;
78670;SDS011;68277;52.724;6.516;2024-02-28T02:27:20;15.77;;;5.07;;
78670;SDS011;68277;52.724;6.516;2024-02-28T02:29:45;14.50;;;5.35;;
78670;SDS011;68277;52.724;6.516;2024-02-28T02:32:11;22.95;;;7.38;;
78670;SDS011;68277;52.724;6.516;2024-02-28T02:34:36;9.48;;;5.20;;
78670;SDS011;68277;52.724;6.516;2024-02-28T02:37:02;17.67;;;5.82;;
78670;SDS011;68277;52.724;6.516;2024-02-28T02:39:29;10.15;;;6.80;;
78670;SDS011;68277;52.724;6.516;2024-02-28T02:41:55;16.25;;;6.13;;
78670;SDS011;68277;52.724;6.516;2024-02-28T02:46:57;12.45;;;4.78;;
78670;SDS011;68277;52.724;6.516;2024-02-28T02:49:22;13.80;;;7.45;;
78670;SDS011;68277;52.724;6.516;2024-02-28T02:51:48;16.35;;;6.40;;
78670;SDS011;68277;52.724;6.516;2024-02-28T02:54:14;13.60;;;5.30;;
78670;SDS011;68277;52.724;6.516;2024-02-28T02:56:42;13.18;;;6.63;;
78670;SDS011;68277;52.724;6.516;2024-02-28T02:59:09;20.08;;;6.57;;
78670;SDS011;68277;52.724;6.516;2024-02-28T03:01:38;10.68;;;4.25;;
78670;SDS011;68277;52.724;6.516;2024-02-28T03:04:03;12.20;;;4.78;;
78670;SDS011;68277;52.724;6.516;2024-02-28T03:06:29;14.45;;;7.45;;
78670;SDS011;68277;52.724;6.516;2024-02-28T03:08:55;8.93;;;5.82;;
78670;SDS011;68277;52.724;6.516;2024-02-28T03:11:20;23.73;;;6.72;;
78670;SDS011;68277;52.724;6.516;2024-02-28T03:13:46;11.23;;;6.93;;
78670;SDS011;68277;52.724;6.516;2024-02-28T03:16:12;16.25;;;7.03;;
78670;SDS011;68277;52.724;6.516;2024-02-28T03:18:37;18.08;;;6.53;;
78670;SDS011;68277;52.724;6.516;2024-02-28T03:21:03;19.58;;;5.00;;
78670;SDS011;68277;52.724;6.516;2024-02-28T03:23:29;12.82;;;6.03;;
78670;SDS011;68277;52.724;6.516;2024-02-28T03:25:54;11.55;;;6.95;;
78670;SDS011;68277;52.724;6.516;2024-02-28T03:28:20;23.08;;;7.80;;
78670;SDS011;68277;52.724;6.516;2024-02-28T03:30:45;13.90;;;4.75;;
78670;SDS011;68277;52.724;6.516;2024-02-28T03:33:11;12.85;;;6.22;;
78670;SDS011;68277;52.724;6.516;2024-02-28T03:35:37;15.43;;;6.65;;
78670;SDS011;68277;52.724;6.516;2024-02-28T03:38:02;14.55;;;6.00;;
78670;SDS011;68277;52.724;6.516;2024-02-28T03:40:28;17.50;;;6.47;;
78670;SDS011;68277;52.724;6.516;2024-02-28T03:42:53;11.98;;;5.95;;
78670;SDS011;68277;52.724;6.516;2024-02-28T03:45:19;18.08;;;8.93;;
78670;SDS011;68277;52.724;6.516;2024-02-28T03:47:45;18.90;;;5.88;;
78670;SDS011;68277;52.724;6.516;2024-02-28T03:50:10;14.45;;;7.20;;
78670;SDS011;68277;52.724;6.516;2024-02-28T03:52:36;16.63;;;7.10;;
78670;SDS011;68277;52.724;6.516;2024-02-28T03:55:02;17.55;;;8.60;;
78670;SDS011;68277;52.724;6.516;2024-02-28T03:57:28;15.13;;;6.15;;
78670;SDS011;68277;52.724;6.516;2024-02-28T03:59:57;10.80;;;6.85;;
78670;SDS011;68277;52.724;6.516;2024-02-28T04:02:23;10.40;;;5.57;;
78670;SDS011;68277;52.724;6.516;2024-02-28T04:04:48;16.17;;;4.07;;
78670;SDS011;68277;52.724;6.516;2024-02-28T04:07:14;16.50;;;7.55;;
78670;SDS011;68277;52.724;6.516;2024-02-28T04:09:40;17.33;;;8.25;;
78670;SDS011;68277;52.724;6.516;2024-02-28T04:12:06;23.92;;;8.27;;
78670;SDS011;68277;52.724;6.516;2024-02-28T04:14:32;15.00;;;7.03;;
78670;SDS011;68277;52.724;6.516;2024-02-28T04:16:58;12.35;;;7.22;;
78670;SDS011;68277;52.724;6.516;2024-02-28T04:19:23;12.68;;;8.05;;
78670;SDS011;68277;52.724;6.516;2024-02-28T04:21:49;18.35;;;7.57;;
78670;SDS011;68277;52.724;6.516;2024-02-28T04:24:14;17.63;;;6.68;;
78670;SDS011;68277;52.724;6.516;2024-02-28T04:26:40;14.52;;;4.85;;
78670;SDS011;68277;52.724;6.516;2024-02-28T04:29:05;14.77;;;4.95;;
78670;SDS011;68277;52.724;6.516;2024-02-28T04:31:33;21.50;;;10.40;;
78670;SDS011;68277;52.724;6.516;2024-02-28T04:33:58;11.60;;;5.57;;
78670;SDS011;68277;52.724;6.516;2024-02-28T04:36:24;14.93;;;7.35;;
78670;SDS011;68277;52.724;6.516;2024-02-28T04:38:49;23.95;;;7.53;;
78670;SDS011;68277;52.724;6.516;2024-02-28T04:41:15;17.30;;;5.78;;
78670;SDS011;68277;52.724;6.516;2024-02-28T04:43:40;14.23;;;7.18;;
78670;SDS011;68277;52.724;6.516;2024-02-28T04:46:06;6.95;;;5.28;;
78670;SDS011;68277;52.724;6.516;2024-02-28T04:48:31;25.88;;;8.75;;
78670;SDS011;68277;52.724;6.516;2024-02-28T04:50:57;18.58;;;7.18;;
78670;SDS011;68277;52.724;6.516;2024-02-28T04:53:22;13.27;;;5.40;;
78670;SDS011;68277;52.724;6.516;2024-02-28T04:55:48;15.75;;;6.32;;
78670;SDS011;68277;52.724;6.516;2024-02-28T04:58:13;15.85;;;5.75;;
78670;SDS011;68277;52.724;6.516;2024-02-28T05:00:39;13.45;;;4.75;;
78670;SDS011;68277;52.724;6.516;2024-02-28T05:03:04;15.82;;;7.03;;
78670;SDS011;68277;52.724;6.516;2024-02-28T05:05:30;17.10;;;6.63;;
78670;SDS011;68277;52.724;6.516;2024-02-28T05:07:55;7.80;;;6.40;;
78670;SDS011;68277;52.724;6.516;2024-02-28T05:10:21;13.38;;;5.57;;
78670;SDS011;68277;52.724;6.516;2024-02-28T05:12:46;21.55;;;9.00;;
78670;SDS011;68277;52.724;6.516;2024-02-28T05:15:12;17.10;;;7.80;;
78670;SDS011;68277;52.724;6.516;2024-02-28T05:17:37;10.73;;;6.18;;
78670;SDS011;68277;52.724;6.516;2024-02-28T05:20:03;13.35;;;6.65;;
78670;SDS011;68277;52.724;6.516;2024-02-28T05:22:29;15.02;;;6.18;;
78670;SDS011;68277;52.724;6.516;2024-02-28T05:24:54;14.98;;;8.85;;
78670;SDS011;68277;52.724;6.516;2024-02-28T05:27:20;18.63;;;8.13;;
78670;SDS011;68277;52.724;6.516;2024-02-28T05:29:46;14.23;;;7.93;;
78670;SDS011;68277;52.724;6.516;2024-02-28T05:32:11;18.98;;;8.35;;
78670;SDS011;68277;52.724;6.516;2024-02-28T05:34:36;13.98;;;8.00;;
78670;SDS011;68277;52.724;6.516;2024-02-28T05:37:02;22.75;;;8.50;;
78670;SDS011;68277;52.724;6.516;2024-02-28T05:39:28;14.95;;;6.95;;
78670;SDS011;68277;52.724;6.516;2024-02-28T05:41:54;14.63;;;7.18;;
78670;SDS011;68277;52.724;6.516;2024-02-28T05:44:20;14.48;;;7.43;;
78670;SDS011;68277;52.724;6.516;2024-02-28T05:46:45;11.68;;;5.10;;
78670;SDS011;68277;52.724;6.516;2024-02-28T05:49:11;20.88;;;8.85;;
78670;SDS011;68277;52.724;6.516;2024-02-28T05:51:36;14.80;;;7.43;;
78670;SDS011;68277;52.724;6.516;2024-02-28T05:54:02;11.98;;;6.72;;
78670;SDS011;68277;52.724;6.516;2024-02-28T05:59:10;15.25;;;6.40;;
78670;SDS011;68277;52.724;6.516;2024-02-28T06:01:36;11.38;;;9.00;;
78670;SDS011;68277;52.724;6.516;2024-02-28T06:06:28;14.85;;;5.03;;
78670;SDS011;68277;52.724;6.516;2024-02-28T06:08:54;19.60;;;7.32;;
78670;SDS011;68277;52.724;6.516;2024-02-28T06:11:21;13.45;;;6.97;;
78670;SDS011;68277;52.724;6.516;2024-02-28T06:13:47;13.63;;;7.05;;
78670;SDS011;68277;52.724;6.516;2024-02-28T06:16:15;13.50;;;6.97;;
78670;SDS011;68277;52.724;6.516;2024-02-28T06:18:41;17.83;;;7.38;;
78670;SDS011;68277;52.724;6.516;2024-02-28T06:21:07;14.70;;;5.93;;
78670;SDS011;68277;52.724;6.516;2024-02-28T06:23:33;16.83;;;8.05;;
78670;SDS011;68277;52.724;6.516;2024-02-28T06:26:01;13.98;;;7.13;;
78670;SDS011;68277;52.724;6.516;2024-02-28T06:30:52;8.07;;;5.25;;
78670;SDS011;68277;52.724;6.516;2024-02-28T06:33:18;20.45;;;7.45;;
78670;SDS011;68277;52.724;6.516;2024-02-28T06:35:44;29.40;;;8.43;;
78670;SDS011;68277;52.724;6.516;2024-02-28T06:38:10;12.95;;;5.40;;
78670;SDS011;68277;52.724;6.516;2024-02-28T06:40:35;15.63;;;6.03;;
78670;SDS011;68277;52.724;6.516;2024-02-28T06:43:01;11.57;;;6.50;;
78670;SDS011;68277;52.724;6.516;2024-02-28T06:45:27;17.65;;;7.15;;
78670;SDS011;68277;52.724;6.516;2024-02-28T06:47:52;14.55;;;8.27;;
78670;SDS011;68277;52.724;6.516;2024-02-28T06:50:18;16.42;;;7.22;;
78670;SDS011;68277;52.724;6.516;2024-02-28T06:52:44;16.65;;;7.45;;
78670;SDS011;68277;52.724;6.516;2024-02-28T06:58:05;10.20;;;5.43;;
78670;SDS011;68277;52.724;6.516;2024-02-28T07:00:31;16.70;;;6.50;;
78670;SDS011;68277;52.724;6.516;2024-02-28T07:02:56;18.50;;;8.25;;
78670;SDS011;68277;52.724;6.516;2024-02-28T07:05:22;22.73;;;9.35;;
78670;SDS011;68277;52.724;6.516;2024-02-28T07:07:49;20.55;;;9.27;;
78670;SDS011;68277;52.724;6.516;2024-02-28T07:10:15;22.77;;;9.82;;
78670;SDS011;68277;52.724;6.516;2024-02-28T07:12:40;22.50;;;8.00;;
78670;SDS011;68277;52.724;6.516;2024-02-28T07:15:06;13.43;;;5.35;;
78670;SDS011;68277;52.724;6.516;2024-02-28T07:17:32;15.75;;;6.45;;
78670;SDS011;68277;52.724;6.516;2024-02-28T07:19:57;13.07;;;5.50;;
78670;SDS011;68277;52.724;6.516;2024-02-28T07:22:23;23.75;;;9.50;;
78670;SDS011;68277;52.724;6.516;2024-02-28T07:24:48;21.35;;;8.05;;
78670;SDS011;68277;52.724;6.516;2024-02-28T07:27:14;15.23;;;8.30;;
78670;SDS011;68277;52.724;6.516;2024-02-28T07:29:39;20.02;;;9.13;;
78670;SDS011;68277;52.724;6.516;2024-02-28T07:32:05;12.30;;;6.43;;
78670;SDS011;68277;52.724;6.516;2024-02-28T07:34:31;14.38;;;7.68;;
78670;SDS011;68277;52.724;6.516;2024-02-28T07:36:56;13.75;;;6.97;;
78670;SDS011;68277;52.724;6.516;2024-02-28T07:39:22;21.70;;;8.82;;
78670;SDS011;68277;52.724;6.516;2024-02-28T07:41:49;30.27;;;9.35;;
78670;SDS011;68277;52.724;6.516;2024-02-28T07:44:19;19.08;;;8.27;;
78670;SDS011;68277;52.724;6.516;2024-02-28T07:46:45;12.05;;;7.25;;
78670;SDS011;68277;52.724;6.516;2024-02-28T07:49:10;18.92;;;6.30;;
78670;SDS011;68277;52.724;6.516;2024-02-28T07:51:36;19.75;;;7.05;;
78670;SDS011;68277;52.724;6.516;2024-02-28T07:54:01;16.52;;;7.13;;
78670;SDS011;68277;52.724;6.516;2024-02-28T07:56:28;8.80;;;6.28;;
78670;SDS011;68277;52.724;6.516;2024-02-28T07:58:54;16.70;;;8.02;;
78670;SDS011;68277;52.724;6.516;2024-02-28T08:01:19;19.35;;;9.30;;
78670;SDS011;68277;52.724;6.516;2024-02-28T08:03:47;20.10;;;7.50;;
78670;SDS011;68277;52.724;6.516;2024-02-28T08:06:13;26.55;;;10.68;;
78670;SDS011;68277;52.724;6.516;2024-02-28T08:08:38;28.88;;;8.35;;
78670;SDS011;68277;52.724;6.516;2024-02-28T08:11:04;15.77;;;8.32;;
78670;SDS011;68277;52.724;6.516;2024-02-28T08:13:31;23.95;;;7.68;;
78670;SDS011;68277;52.724;6.516;2024-02-28T08:15:58;15.77;;;7.75;;
78670;SDS011;68277;52.724;6.516;2024-02-28T08:18:23;27.38;;;11.82;;
78670;SDS011;68277;52.724;6.516;2024-02-28T08:20:49;20.42;;;10.40;;
78670;SDS011;68277;52.724;6.516;2024-02-28T08:23:15;21.13;;;8.95;;
78670;SDS011;68277;52.724;6.516;2024-02-28T08:25:40;19.20;;;10.55;;
78670;SDS011;68277;52.724;6.516;2024-02-28T08:28:06;18.05;;;7.07;;
78670;SDS011;68277;52.724;6.516;2024-02-28T08:30:31;16.88;;;7.88;;
78670;SDS011;68277;52.724;6.516;2024-02-28T08:32:59;20.90;;;8.02;;
78670;SDS011;68277;52.724;6.516;2024-02-28T08:35:24;15.45;;;7.85;;
78670;SDS011;68277;52.724;6.516;2024-02-28T08:37:50;19.95;;;8.27;;
78670;SDS011;68277;52.724;6.516;2024-02-28T08:40:15;14.25;;;8.52;;
78670;SDS011;68277;52.724;6.516;2024-02-28T08:42:41;16.77;;;6.95;;
78670;SDS011;68277;52.724;6.516;2024-02-28T08:45:07;14.75;;;9.05;;
78670;SDS011;68277;52.724;6.516;2024-02-28T08:47:33;17.52;;;8.88;;
78670;SDS011;68277;52.724;6.516;2024-02-28T08:49:59;17.35;;;9.55;;
78670;SDS011;68277;52.724;6.516;2024-02-28T08:52:24;21.20;;;10.48;;
78670;SDS011;68277;52.724;6.516;2024-02-28T08:54:50;24.45;;;9.57;;
78670;SDS011;68277;52.724;6.516;2024-02-28T08:57:15;18.40;;;8.30;;
78670;SDS011;68277;52.724;6.516;2024-02-28T08:59:41;21.15;;;11.13;;
78670;SDS011;68277;52.724;6.516;2024-02-28T09:02:07;24.65;;;9.02;;
78670;SDS011;68277;52.724;6.516;2024-02-28T09:04:34;19.00;;;8.98;;
78670;SDS011;68277;52.724;6.516;2024-02-28T09:06:59;16.50;;;7.07;;
78670;SDS011;68277;52.724;6.516;2024-02-28T09:09:26;22.02;;;8.68;;
78670;SDS011;68277;52.724;6.516;2024-02-28T09:11:53;18.50;;;8.60;;
78670;SDS011;68277;52.724;6.516;2024-02-28T09:14:18;15.88;;;9.25;;
78670;SDS011;68277;52.724;6.516;2024-02-28T09:16:44;15.43;;;7.93;;
78670;SDS011;68277;52.724;6.516;2024-02-28T09:19:09;20.83;;;9.00;;
78670;SDS011;68277;52.724;6.516;2024-02-28T09:21:35;13.65;;;8.38;;
78670;SDS011;68277;52.724;6.516;2024-02-28T09:24:01;22.25;;;8.40;;
78670;SDS011;68277;52.724;6.516;2024-02-28T09:26:29;20.45;;;10.70;;
78670;SDS011;68277;52.724;6.516;2024-02-28T09:28:55;20.08;;;10.00;;
78670;SDS011;68277;52.724;6.516;2024-02-28T09:31:21;20.70;;;8.75;;
78670;SDS011;68277;52.724;6.516;2024-02-28T09:33:47;23.05;;;9.30;;
78670;SDS011;68277;52.724;6.516;2024-02-28T09:36:15;22.15;;;9.00;;
78670;SDS011;68277;52.724;6.516;2024-02-28T09:38:41;20.67;;;9.38;;
78670;SDS011;68277;52.724;6.516;2024-02-28T09:41:09;18.92;;;8.10;;
78670;SDS011;68277;52.724;6.516;2024-02-28T09:43:40;18.13;;;9.52;;
78670;SDS011;68277;52.724;6.516;2024-02-28T09:46:07;19.42;;;7.50;;
78670;SDS011;68277;52.724;6.516;2024-02-28T09:48:39;17.95;;;8.88;;
78670;SDS011;68277;52.724;6.516;2024-02-28T09:51:06;16.25;;;9.23;;
78670;SDS011;68277;52.724;6.516;2024-02-28T09:53:34;28.73;;;11.52;;
78670;SDS011;68277;52.724;6.516;2024-02-28T09:55:59;17.63;;;8.85;;
78670;SDS011;68277;52.724;6.516;2024-02-28T09:58:26;17.23;;;8.98;;
78670;SDS011;68277;52.724;6.516;2024-02-28T10:00:53;19.73;;;8.52;;
78670;SDS011;68277;52.724;6.516;2024-02-28T10:03:24;16.17;;;7.68;;
78670;SDS011;68277;52.724;6.516;2024-02-28T10:05:50;18.92;;;9.15;;
78670;SDS011;68277;52.724;6.516;2024-02-28T10:08:16;22.92;;;10.65;;
78670;SDS011;68277;52.724;6.516;2024-02-28T10:10:45;21.63;;;10.93;;
78670;SDS011;68277;52.724;6.516;2024-02-28T10:13:12;18.30;;;9.55;;
78670;SDS011;68277;52.724;6.516;2024-02-28T10:15:38;20.60;;;9.55;;
78670;SDS011;68277;52.724;6.516;2024-02-28T10:18:03;20.75;;;8.50;;
78670;SDS011;68277;52.724;6.516;2024-02-28T10:20:32;21.23;;;10.15;;
78670;SDS011;68277;52.724;6.516;2024-02-28T10:22:58;21.08;;;11.50;;
78670;SDS011;68277;52.724;6.516;2024-02-28T10:25:24;20.60;;;8.93;;
78670;SDS011;68277;52.724;6.516;2024-02-28T10:27:51;18.85;;;10.45;;
78670;SDS011;68277;52.724;6.516;2024-02-28T10:30:19;23.65;;;12.07;;
78670;SDS011;68277;52.724;6.516;2024-02-28T10:32:50;16.83;;;7.78;;
78670;SDS011;68277;52.724;6.516;2024-02-28T10:35:19;19.50;;;9.15;;
78670;SDS011;68277;52.724;6.516;2024-02-28T10:37:46;15.32;;;8.98;;
78670;SDS011;68277;52.724;6.516;2024-02-28T10:40:14;11.73;;;7.72;;
78670;SDS011;68277;52.724;6.516;2024-02-28T10:42:42;18.58;;;8.25;;
78670;SDS011;68277;52.724;6.516;2024-02-28T10:45:11;20.45;;;9.65;;
78670;SDS011;68277;52.724;6.516;2024-02-28T10:47:38;20.17;;;8.82;;
78670;SDS011;68277;52.724;6.516;2024-02-28T10:50:04;20.10;;;9.25;;
78670;SDS011;68277;52.724;6.516;2024-02-28T10:52:32;22.88;;;10.10;;
78670;SDS011;68277;52.724;6.516;2024-02-28T10:54:59;24.45;;;9.10;;
78670;SDS011;68277;52.724;6.516;2024-02-28T10:57:27;16.52;;;9.10;;
78670;SDS011;68277;52.724;6.516;2024-02-28T10:59:54;18.38;;;9.98;;
78670;SDS011;68277;52.724;6.516;2024-02-28T11:02:21;23.73;;;9.80;;
78670;SDS011;68277;52.724;6.516;2024-02-28T11:04:51;22.38;;;12.10;;
78670;SDS011;68277;52.724;6.516;2024-02-28T11:07:21;22.92;;;10.43;;
78670;SDS011;68277;52.724;6.516;2024-02-28T11:09:47;16.25;;;10.10;;
78670;SDS011;68277;52.724;6.516;2024-02-28T11:12:25;21.95;;;10.20;;
78670;SDS011;68277;52.724;6.516;2024-02-28T11:14:55;24.65;;;8.32;;
78670;SDS011;68277;52.724;6.516;2024-02-28T11:17:26;25.65;;;10.90;;
78670;SDS011;68277;52.724;6.516;2024-02-28T11:19:56;15.68;;;7.53;;
78670;SDS011;68277;52.724;6.516;2024-02-28T11:22:22;16.17;;;9.63;;
78670;SDS011;68277;52.724;6.516;2024-02-28T11:24:48;19.77;;;9.77;;
78670;SDS011;68277;52.724;6.516;2024-02-28T11:27:17;19.65;;;10.68;;
78670;SDS011;68277;52.724;6.516;2024-02-28T11:29:44;19.92;;;8.80;;
78670;SDS011;68277;52.724;6.516;2024-02-28T11:32:12;20.60;;;9.63;;
78670;SDS011;68277;52.724;6.516;2024-02-28T11:34:39;16.02;;;8.75;;
78670;SDS011;68277;52.724;6.516;2024-02-28T11:37:09;16.63;;;8.75;;
78670;SDS011;68277;52.724;6.516;2024-02-28T11:39:35;16.20;;;8.13;;
78670;SDS011;68277;52.724;6.516;2024-02-28T11:42:08;16.52;;;9.73;;
78670;SDS011;68277;52.724;6.516;2024-02-28T11:44:52;20.65;;;10.77;;
78670;SDS011;68277;52.724;6.516;2024-02-28T11:47:20;14.27;;;9.05;;
78670;SDS011;68277;52.724;6.516;2024-02-28T11:52:14;14.90;;;9.15;;
78670;SDS011;68277;52.724;6.516;2024-02-28T11:54:39;17.13;;;8.93;;
78670;SDS011;68277;52.724;6.516;2024-02-28T11:57:05;17.25;;;9.02;;
78670;SDS011;68277;52.724;6.516;2024-02-28T11:59:33;20.92;;;9.05;;
78670;SDS011;68277;52.724;6.516;2024-02-28T12:01:58;18.58;;;9.93;;
78670;SDS011;68277;52.724;6.516;2024-02-28T12:04:24;24.17;;;10.73;;
78670;SDS011;68277;52.724;6.516;2024-02-28T12:06:52;20.90;;;9.30;;
78670;SDS011;68277;52.724;6.516;2024-02-28T12:09:18;16.20;;;9.40;;
78670;SDS011;68277;52.724;6.516;2024-02-28T12:11:43;19.52;;;10.05;;
78670;SDS011;68277;52.724;6.516;2024-02-28T12:14:09;20.75;;;8.95;;
78670;SDS011;68277;52.724;6.516;2024-02-28T12:16:37;21.65;;;9.88;;
78670;SDS011;68277;52.724;6.516;2024-02-28T12:19:08;19.70;;;10.30;;
78670;SDS011;68277;52.724;6.516;2024-02-28T12:21:35;21.75;;;9.60;;
78670;SDS011;68277;52.724;6.516;2024-02-28T12:24:05;18.95;;;9.63;;
78670;SDS011;68277;52.724;6.516;2024-02-28T12:26:32;23.92;;;9.57;;
78670;SDS011;68277;52.724;6.516;2024-02-28T12:28:58;15.00;;;9.07;;
78670;SDS011;68277;52.724;6.516;2024-02-28T12:31:23;16.88;;;9.38;;
78670;SDS011;68277;52.724;6.516;2024-02-28T12:33:49;18.63;;;8.30;;
78670;SDS011;68277;52.724;6.516;2024-02-28T12:36:15;15.55;;;10.07;;
78670;SDS011;68277;52.724;6.516;2024-02-28T12:38:40;16.27;;;8.85;;
78670;SDS011;68277;52.724;6.516;2024-02-28T12:41:06;19.48;;;9.68;;
78670;SDS011;68277;52.724;6.516;2024-02-28T12:43:32;17.92;;;9.27;;
78670;SDS011;68277;52.724;6.516;2024-02-28T12:46:30;29.13;;;14.00;;
78670;SDS011;68277;52.724;6.516;2024-02-28T12:48:56;20.63;;;10.70;;
78670;SDS011;68277;52.724;6.516;2024-02-28T12:51:40;22.92;;;11.43;;
78670;SDS011;68277;52.724;6.516;2024-02-28T12:54:12;18.67;;;9.77;;
78670;SDS011;68277;52.724;6.516;2024-02-28T12:56:39;21.23;;;10.13;;
78670;SDS011;68277;52.724;6.516;2024-02-28T12:59:08;16.98;;;8.93;;
78670;SDS011;68277;52.724;6.516;2024-02-28T13:01:34;20.95;;;11.32;;
78670;SDS011;68277;52.724;6.516;2024-02-28T13:03:59;18.30;;;9.30;;
78670;SDS011;68277;52.724;6.516;2024-02-28T13:06:25;20.00;;;10.23;;
78670;SDS011;68277;52.724;6.516;2024-02-28T13:08:54;21.27;;;9.77;;
78670;SDS011;68277;52.724;6.516;2024-02-28T13:11:20;32.50;;;12.23;;
78670;SDS011;68277;52.724;6.516;2024-02-28T13:13:47;41.55;;;14.88;;
78670;SDS011;68277;52.724;6.516;2024-02-28T13:16:14;22.55;;;10.77;;
78670;SDS011;68277;52.724;6.516;2024-02-28T13:18:40;17.52;;;10.02;;
78670;SDS011;68277;52.724;6.516;2024-02-28T13:21:06;21.08;;;12.55;;
78670;SDS011;68277;52.724;6.516;2024-02-28T13:23:32;25.52;;;10.50;;
78670;SDS011;68277;52.724;6.516;2024-02-28T13:25:59;22.60;;;11.25;;
78670;SDS011;68277;52.724;6.516;2024-02-28T13:28:26;15.95;;;9.85;;
78670;SDS011;68277;52.724;6.516;2024-02-28T13:30:58;16.90;;;9.07;;
78670;SDS011;68277;52.724;6.516;2024-02-28T13:33:29;18.42;;;9.70;;
78670;SDS011;68277;52.724;6.516;2024-02-28T13:35:54;17.70;;;10.27;;
78670;SDS011;68277;52.724;6.516;2024-02-28T13:38:20;21.90;;;11.20;;
78670;SDS011;68277;52.724;6.516;2024-02-28T13:40:47;21.85;;;11.25;;
78670;SDS011;68277;52.724;6.516;2024-02-28T13:43:13;18.15;;;9.70;;
78670;SDS011;68277;52.724;6.516;2024-02-28T13:45:39;22.40;;;9.20;;
78670;SDS011;68277;52.724;6.516;2024-02-28T13:48:15;17.45;;;10.35;;
78670;SDS011;68277;52.724;6.516;2024-02-28T13:50:46;11.40;;;5.68;;
78670;SDS011;68277;52.724;6.516;2024-02-28T13:53:14;17.30;;;7.72;;
78670;SDS011;68277;52.724;6.516;2024-02-28T13:55:41;18.35;;;8.27;;
78670;SDS011;68277;52.724;6.516;2024-02-28T13:58:08;15.90;;;8.77;;
78670;SDS011;68277;52.724;6.516;2024-02-28T14:00:36;17.02;;;7.18;;
78670;SDS011;68277;52.724;6.516;2024-02-28T14:03:03;12.95;;;7.35;;
78670;SDS011;68277;52.724;6.516;2024-02-28T14:07:56;19.90;;;8.57;;
78670;SDS011;68277;52.724;6.516;2024-02-28T14:10:22;21.52;;;10.45;;
78670;SDS011;68277;52.724;6.516;2024-02-28T14:12:48;18.90;;;8.75;;
78670;SDS011;68277;52.724;6.516;2024-02-28T14:15:20;18.35;;;8.77;;
78670;SDS011;68277;52.724;6.516;2024-02-28T14:17:47;15.82;;;7.97;;
78670;SDS011;68277;52.724;6.516;2024-02-28T14:20:14;20.98;;;8.50;;
78670;SDS011;68277;52.724;6.516;2024-02-28T14:22:40;18.23;;;8.98;;
78670;SDS011;68277;52.724;6.516;2024-02-28T14:25:13;20.67;;;9.98;;
78670;SDS011;68277;52.724;6.516;2024-02-28T14:27:41;17.80;;;9.57;;
78670;SDS011;68277;52.724;6.516;2024-02-28T14:30:08;21.30;;;9.32;;
78670;SDS011;68277;52.724;6.516;2024-02-28T14:32:38;21.50;;;9.80;;
78670;SDS011;68277;52.724;6.516;2024-02-28T14:35:05;21.00;;;10.15;;
78670;SDS011;68277;52.724;6.516;2024-02-28T14:37:32;12.80;;;7.50;;
78670;SDS011;68277;52.724;6.516;2024-02-28T14:40:01;15.32;;;8.85;;
78670;SDS011;68277;52.724;6.516;2024-02-28T14:42:31;15.20;;;9.05;;
78670;SDS011;68277;52.724;6.516;2024-02-28T14:44:57;18.38;;;8.77;;
78670;SDS011;68277;52.724;6.516;2024-02-28T14:47:22;13.75;;;6.80;;
78670;SDS011;68277;52.724;6.516;2024-02-28T14:49:48;22.52;;;10.18;;